Time;durP1;ratioP1;P1;durP2;ratioP2;P2;SDS_P1;SDS_P2;PMS_P1;PMS_P2;Temp;Humidity;BMP_temperature;BMP_pressure;BME280_temperature;BME280_humidity;BME280_pressure;Samples;Min_cycle;Max_cycle;Signal;HPM_P1;HPM_P2
2022/12/23 00:07:26;;;;;;;8.10;2.30;;;10.90;99.90;;;;;;21081405;28;20241;-74
2022/12/23 00:17:28;;;;;;;8.53;2.30;;;10.90;99.90;;;;;;21081231;28;20268;-69
2022/12/23 00:27:30;;;;;;;6.37;2.20;;;10.90;99.90;;;;;;21079649;28;20635;-69
2022/12/23 00:37:38;;;;;;;6.50;2.40;;;10.90;99.90;;;;;;21079427;28;20660;-72
2022/12/23 00:58:00;;;;;;;6.73;2.20;;;10.80;99.90;;;;;;21078500;28;20206;-73
2022/12/23 01:08:06;;;;;;;6.63;2.20;;;10.70;99.90;;;;;;21077992;28;20716;-72
2022/12/23 01:18:08;;;;;;;5.77;2.60;;;10.70;99.90;;;;;;21078117;28;20205;-73
2022/12/23 01:28:09;;;;;;;5.23;2.13;;;10.70;99.90;;;;;;21077326;28;20237;-72
2022/12/23 01:38:12;;;;;;;7.57;2.60;;;10.70;99.90;;;;;;21084929;28;20267;-73
2022/12/23 01:48:16;;;;;;;3.33;1.90;;;10.70;99.90;;;;;;21092285;28;20240;-70
2022/12/23 01:58:25;;;;;;;7.40;2.60;;;10.70;99.90;;;;;;21091555;28;20210;-71
2022/12/23 02:19:08;;;;;;;5.37;2.40;;;10.60;99.90;;;;;;21090131;28;20209;-68
2022/12/23 02:30:04;;;;;;;8.70;2.70;;;10.50;99.90;;;;;;21071098;28;20290;-69
2022/12/23 02:40:13;;;;;;;7.40;2.60;;;10.50;99.90;;;;;;21012442;28;20212;-68
2022/12/23 02:50:24;;;;;;;6.37;2.83;;;10.50;99.90;;;;;;21087282;28;20242;-69
2022/12/23 03:00:27;;;;;;;5.90;2.90;;;10.50;99.90;;;;;;21086534;28;20213;-68
2022/12/23 03:10:40;;;;;;;6.43;2.90;;;10.50;99.90;;;;;;21085458;28;20595;-69
2022/12/23 03:21:07;;;;;;;4.70;2.90;;;10.50;99.90;;;;;;21085371;28;20221;-72
2022/12/23 03:31:15;;;;;;;2.70;1.77;;;10.50;99.90;;;;;;21077183;28;20702;-73
2022/12/23 03:41:30;;;;;;;1.80;1.30;;;10.50;99.90;;;;;;21085370;28;20205;-74
2022/12/23 03:51:38;;;;;;;2.57;1.40;;;10.50;99.90;;;;;;21089006;28;20735;-73
2022/12/23 04:01:51;;;;;;;2.03;1.30;;;10.60;99.90;;;;;;21081712;28;20397;-68
2022/12/23 04:11:53;;;;;;;3.77;2.60;;;;;;;;;;21081438;28;20258;-69
2022/12/23 04:21:56;;;;;;;5.90;3.30;;;10.60;99.90;;;;;;21080437;28;20210;-73
2022/12/23 04:31:58;;;;;;;8.37;3.43;;;;;;;;;;21080253;28;20283;-72
2022/12/23 04:42:00;;;;;;;6.50;3.50;;;10.50;99.90;;;;;;21079392;28;20238;-69
2022/12/23 04:52:02;;;;;;;6.80;3.83;;;10.50;99.90;;;;;;21078707;28;20790;-69
2022/12/23 05:02:03;;;;;;;3.47;3.03;;;10.40;99.90;;;;;;21078470;28;20263;-69
2022/12/23 05:12:05;;;;;;;4.63;3.60;;;10.40;99.90;;;;;;21084981;28;20236;-68
2022/12/23 05:22:07;;;;;;;4.03;2.83;;;10.50;99.90;;;;;;21094339;28;20594;-69
2022/12/23 05:32:09;;;;;;;5.83;2.90;;;10.50;99.90;;;;;;21093886;28;20252;-73
2022/12/23 05:42:11;;;;;;;4.70;1.63;;;;;;;;;;21092733;28;20211;-72
2022/12/23 05:52:13;;;;;;;1.70;1.60;;;;;;;;;;21091835;28;20279;-74
2022/12/23 06:02:15;;;;;;;1.60;1.50;;;10.70;99.90;;;;;;21091477;28;20264;-72
2022/12/23 06:12:17;;;;;;;2.13;1.40;;;10.80;99.90;;;;;;21090365;28;20234;-73
2022/12/23 06:22:20;;;;;;;1.77;1.20;;;10.80;99.90;;;;;;21087220;28;20213;-72
2022/12/23 06:32:22;;;;;;;1.10;1.00;;;10.80;99.90;;;;;;21088665;28;20593;-73
2022/12/23 06:42:23;;;;;;;4.83;2.90;;;10.80;99.90;;;;;;21086999;28;20202;-72
2022/12/23 06:52:25;;;;;;;2.17;1.37;;;10.80;99.90;;;;;;21086568;28;20241;-72
2022/12/23 07:02:27;;;;;;;1.63;1.47;;;10.90;99.90;;;;;;21086559;28;20718;-72
2022/12/23 07:12:29;;;;;;;5.53;4.13;;;;;;;;;;21085886;28;20597;-72
2022/12/23 07:22:31;;;;;;;3.80;1.60;;;10.90;99.90;;;;;;21087586;28;20218;-73
2022/12/23 07:32:32;;;;;;;1.97;1.20;;;11.00;99.90;;;;;;21083686;28;20631;-71
2022/12/23 07:42:34;;;;;;;1.10;1.00;;;11.00;99.90;;;;;;21083061;28;20210;-72
2022/12/23 07:52:52;;;;;;;2.30;1.20;;;11.00;99.90;;;;;;21081673;28;20575;-70
2022/12/23 08:02:54;;;;;;;3.67;1.77;;;9.10;99.90;;;;;;21081804;28;20221;-72
2022/12/23 08:12:59;;;;;;;3.83;2.37;;;11.10;99.90;;;;;;21080631;28;20727;-68
2022/12/23 08:23:01;;;;;;;3.17;2.40;;;11.20;99.90;;;;;;21081272;28;20211;-70
2022/12/23 08:33:03;;;;;;;6.07;2.20;;;;;;;;;;21079702;28;20700;-71
2022/12/23 08:43:04;;;;;;;4.73;2.20;;;11.10;99.90;;;;;;21078841;28;20216;-70
2022/12/23 08:53:07;;;;;;;10.03;2.60;;;11.20;99.90;;;;;;21078001;28;20299;-72
2022/12/23 09:03:08;;;;;;;6.47;3.00;;;11.30;99.90;;;;;;21078320;28;20542;-72
2022/12/23 09:13:11;;;;;;;4.20;2.87;;;11.40;99.90;;;;;;21077439;28;20229;-72
2022/12/23 09:23:23;;;;;;;4.30;2.90;;;11.40;99.90;;;;;;21077093;28;20324;-72
2022/12/23 09:33:24;;;;;;;6.07;3.40;;;11.50;99.90;;;;;;21076962;28;20234;-72
2022/12/23 09:43:44;;;;;;;12.17;3.77;;;11.50;99.90;;;;;;21076585;28;20248;-69
2022/12/23 09:54:10;;;;;;;6.10;3.53;;;11.50;99.90;;;;;;21076378;28;20599;-73
2022/12/23 10:04:20;;;;;;;7.17;4.00;;;11.60;99.90;;;;;;21075806;28;20241;-73
2022/12/23 10:14:28;;;;;;;9.13;4.83;;;11.60;99.90;;;;;;21090279;28;20237;-72
2022/12/23 10:24:41;;;;;;;7.80;4.53;;;11.60;99.90;;;;;;21088560;28;20225;-73
2022/12/23 10:34:49;;;;;;;10.97;5.53;;;11.70;99.90;;;;;;21089175;28;20240;-73
2022/12/23 10:45:00;;;;;;;7.80;5.33;;;11.80;99.90;;;;;;21087020;28;20212;-73
2022/12/23 10:55:04;;;;;;;7.47;4.97;;;11.90;99.90;;;;;;21087213;28;20248;-69
2022/12/23 11:05:27;;;;;;;10.80;5.70;;;11.90;99.90;;;;;;21086256;28;20202;-69
2022/12/23 11:15:35;;;;;;;8.47;5.83;;;12.00;99.90;;;;;;21085363;28;20700;-68
2022/12/23 11:25:42;;;;;;;8.03;5.50;;;12.00;99.90;;;;;;21084128;28;20205;-70
2022/12/23 11:35:44;;;;;;;7.43;5.53;;;12.00;99.90;;;;;;21082950;28;20260;-69
2022/12/23 11:45:46;;;;;;;12.40;5.30;;;12.00;99.90;;;;;;21082205;28;20232;-71
2022/12/23 11:56:07;;;;;;;7.07;5.50;;;12.00;99.90;;;;;;21080933;28;20250;-69
2022/12/23 12:06:13;;;;;;;9.73;5.53;;;12.00;99.90;;;;;;21080388;28;20408;-69
2022/12/23 12:16:43;;;;;;;6.27;5.10;;;12.00;99.90;;;;;;21079274;28;20230;-70
2022/12/23 12:26:49;;;;;;;9.33;5.83;;;12.00;99.90;;;;;;21079340;28;20263;-69
2022/12/23 12:37:09;;;;;;;7.47;4.67;;;12.00;99.90;;;;;;21078913;28;20243;-69
2022/12/23 12:47:23;;;;;;;5.00;3.20;;;12.00;99.90;;;;;;21094715;28;20236;-69
2022/12/23 12:57:45;;;;;;;3.43;2.60;;;12.00;99.90;;;;;;21078351;28;20236;-69
2022/12/23 13:08:24;;;;;;;4.17;2.40;;;12.00;99.90;;;;;;21077988;28;20214;-69
2022/12/23 13:18:51;;;;;;;6.93;2.87;;;11.90;99.90;;;;;;21078143;28;20220;-69
2022/12/23 13:37:11;;;;;;;4.57;3.17;;;11.90;99.90;;;;;;20984478;28;20576;-69
2022/12/23 13:47:29;;;;;;;4.63;2.70;;;11.90;99.90;;;;;;20957651;28;20569;-69
2022/12/23 13:57:57;;;;;;;3.13;2.83;;;11.90;99.90;;;;;;20983081;28;20658;-68
2022/12/23 14:08:05;;;;;;;3.67;2.93;;;12.00;99.90;;;;;;20982633;28;20235;-69
2022/12/23 14:18:24;;;;;;;4.43;3.37;;;11.90;99.90;;;;;;20982140;28;20262;-72
2022/12/23 14:29:11;;;;;;;4.80;3.73;;;11.90;99.90;;;;;;20978415;28;20251;-71
2022/12/23 14:39:13;;;;;;;6.97;4.30;;;11.90;99.90;;;;;;20971702;28;20208;-72
2022/12/23 14:49:33;;;;;;;10.00;4.83;;;;;;;;;;20924014;28;20753;-72
2022/12/23 14:59:50;;;;;;;7.00;4.30;;;11.80;99.90;;;;;;20923368;28;20217;-71
2022/12/23 15:09:55;;;;;;;6.07;4.10;;;11.80;99.90;;;;;;20922255;28;20239;-72
2022/12/23 15:20:17;;;;;;;6.33;5.20;;;11.80;99.90;;;;;;20921404;28;20204;-72
2022/12/23 15:30:20;;;;;;;6.50;5.77;;;11.80;99.90;;;;;;20920580;28;20244;-71
2022/12/23 15:40:32;;;;;;;8.00;6.37;;;11.80;99.90;;;;;;20919714;28;20207;-71
2022/12/23 15:50:40;;;;;;;8.90;6.20;;;11.80;99.90;;;;;;20917852;28;20292;-71
2022/12/23 16:00:52;;;;;;;7.90;5.07;;;11.90;99.90;;;;;;20918708;28;20293;-72
2022/12/23 16:11:03;;;;;;;5.47;4.00;;;11.90;99.90;;;;;;20917431;28;20239;-72
2022/12/23 16:21:11;;;;;;;2.40;2.20;;;12.00;99.90;;;;;;20916509;28;20800;-72
2022/12/23 16:31:16;;;;;;;2.27;2.00;;;12.20;99.90;;;;;;20915851;28;20296;-72
2022/12/23 16:41:18;;;;;;;2.70;2.20;;;12.40;99.90;;;;;;20915055;28;20665;-71
2022/12/23 16:51:22;;;;;;;1.70;1.50;;;12.50;99.90;;;;;;20914466;28;20596;-71
2022/12/23 17:01:30;;;;;;;3.07;1.83;;;12.60;99.90;;;;;;20913914;28;20559;-70
2022/12/23 17:11:42;;;;;;;2.23;1.50;;;12.60;99.90;;;;;;20913310;28;20600;-70
2022/12/23 17:21:45;;;;;;;1.23;1.13;;;12.70;99.90;;;;;;20915744;28;20679;-71
2022/12/23 17:31:48;;;;;;;1.20;1.00;;;12.80;99.90;;;;;;20912444;28;20262;-70
2022/12/23 17:41:50;;;;;;;2.20;1.20;;;12.80;99.90;;;;;;20911115;28;20204;-68
2022/12/23 17:51:52;;;;;;;2.20;1.17;;;12.80;99.90;;;;;;20911988;28;20244;-70
2022/12/23 18:01:53;;;;;;;1.10;1.00;;;12.80;99.90;;;;;;20911679;28;20290;-70
2022/12/23 18:11:55;;;;;;;1.30;1.20;;;12.80;99.90;;;;;;20910691;28;20318;-69
2022/12/23 18:21:57;;;;;;;1.10;1.00;;;12.80;99.90;;;;;;20923762;28;20211;-69
2022/12/23 18:31:59;;;;;;;3.03;1.20;;;12.80;99.90;;;;;;20925314;28;20250;-70
2022/12/23 18:42:01;;;;;;;1.77;1.20;;;12.80;99.90;;;;;;20924736;28;20200;-72
2022/12/23 18:52:11;;;;;;;0.80;0.80;;;12.80;99.90;;;;;;20923740;28;20293;-70
2022/12/23 19:02:14;;;;;;;1.90;0.90;;;;;;;;;;20923263;28;20237;-71
2022/12/23 19:18:20;;;;;;;0.97;0.87;;;12.50;99.90;;;;;;21152738;27;20564;-70
2022/12/23 19:28:22;;;;;;;1.10;1.00;;;12.50;99.90;;;;;;21151644;28;20215;-69
2022/12/23 19:38:24;;;;;;;1.23;0.97;;;12.40;99.90;;;;;;21150780;28;20210;-69
2022/12/23 19:48:28;;;;;;;2.00;1.20;;;12.50;99.90;;;;;;21132288;28;20217;-72
2022/12/23 19:58:35;;;;;;;2.80;1.27;;;12.50;99.90;;;;;;21147769;28;20206;-72
2022/12/23 20:08:37;;;;;;;2.30;1.17;;;12.60;99.90;;;;;;21148121;28;20679;-72
2022/12/23 20:18:38;;;;;;;1.77;1.30;;;12.60;99.90;;;;;;21147657;28;20259;-71
2022/12/23 20:28:41;;;;;;;3.40;1.30;;;12.70;99.90;;;;;;21096738;28;20208;-72
2022/12/23 20:38:44;;;;;;;2.83;1.27;;;12.50;99.90;;;;;;21089935;28;20541;-72
2022/12/23 20:48:46;;;;;;;4.93;1.50;;;12.60;99.90;;;;;;21090060;28;20721;-73
2022/12/23 20:58:54;;;;;;;4.77;1.40;;;12.60;99.90;;;;;;21088553;28;20209;-70
2022/12/23 21:08:58;;;;;;;3.53;1.70;;;12.60;99.90;;;;;;21087264;28;20273;-69
2022/12/23 21:19:00;;;;;;;4.33;1.40;;;;;;;;;;21086538;28;20212;-70
2022/12/23 21:29:04;;;;;;;2.20;1.30;;;12.40;99.90;;;;;;21085936;28;20288;-68
2022/12/23 21:39:09;;;;;;;7.23;1.77;;;12.30;99.90;;;;;;21083909;28;20215;-69
2022/12/23 21:49:11;;;;;;;6.23;1.60;;;12.20;99.90;;;;;;21084080;28;20230;-71
2022/12/23 21:59:13;;;;;;;6.10;1.73;;;12.10;99.90;;;;;;21083646;28;20206;-72
2022/12/23 22:09:17;;;;;;;8.30;1.63;;;12.10;99.90;;;;;;21082474;28;20685;-72
2022/12/23 22:19:19;;;;;;;10.67;2.10;;;12.00;99.90;;;;;;21082030;28;20199;-72
2022/12/23 22:29:21;;;;;;;8.27;1.80;;;12.00;99.90;;;;;;21081594;28;20234;-72
2022/12/23 22:39:22;;;;;;;6.70;1.63;;;12.20;99.90;;;;;;21080760;28;20210;-72
2022/12/23 22:49:24;;;;;;;9.33;2.07;;;12.10;99.90;;;;;;21080007;28;20705;-72
2022/12/23 22:59:26;;;;;;;6.17;1.77;;;12.10;99.90;;;;;;21079769;28;20289;-72
2022/12/23 23:09:28;;;;;;;5.10;2.00;;;12.10;99.90;;;;;;21078517;28;20291;-71
2022/12/23 23:19:30;;;;;;;5.07;1.63;;;;;;;;;;21078433;28;20727;-71
2022/12/23 23:29:32;;;;;;;7.23;1.70;;;12.20;99.90;;;;;;21078824;28;20230;-71
2022/12/23 23:39:34;;;;;;;4.57;1.57;;;12.10;99.90;;;;;;21077754;28;20557;-71
2022/12/23 23:49:36;;;;;;;6.53;2.07;;;12.10;99.90;;;;;;21077423;28;20230;-71
2022/12/23 23:59:37;;;;;;;7.50;2.03;;;12.10;99.90;;;;;;21084982;28;20692;-72
